Data for 01/01/2014

Time Sea-Level Adjusted Pressure Absolute Pressure Temperature Relative Humidity Dew Point   
(mb) (inHg) (mb) (inHg) (C) (F) (%) (C) (F)
00:05 1019 30.09 848 25.04 0.7 33.3 78 -2.7 27.2
00:10 1019 30.09 848 25.04 0.7 33.3 76 -3 26.7
00:15 1019 30.09 848 25.04 0.8 33.5 72 -3.6 25.5
00:20 1019 30.09 848 25.04 1 33.9 69 -4.1 24.7
00:25 1019 30.09 848 25.04 1.2 34.2 67 -4.2 24.4
00:30 1019 30.09 848 25.04 1.3 34.4 68 -4 24.8
00:35 1019 30.09 848 25.04 1.3 34.4 66 -4.3 24.3
00:40 1019 30.09 848 25.04 1.4 34.5 65 -4.6 23.8
00:45 1019 30.09 848 25.04 1.4 34.6 63 -4.8 23.4
00:50 1019 30.09 848 25.04 1.5 34.7 63 -4.8 23.4
00:55 1019 30.09 848 25.04 1.5 34.7 63 -4.7 23.6
01:00 1019 30.09 849 25.07 1.4 34.5 64 -4.6 23.7
01:05 1019 30.09 849 25.07 1.4 34.5 63 -4.9 23.1
01:10 1019 30.09 849 25.07 1.4 34.5 64 -4.7 23.6
01:15 1019 30.09 849 25.07 1.3 34.3 66 -4.3 24.2
01:20 1019 30.09 848 25.04 1.1 33.9 65 -4.8 23.4
01:25 1019 30.09 848 25.04 1.1 34 65 -4.8 23.3
01:30 1019 30.09 848 25.04 1.1 34 65 -4.8 23.3
01:35 1019 30.09 848 25.04 1.1 34 64 -4.8 23.3
01:40 1019 30.09 848 25.04 1.1 34 65 -4.7 23.5
01:45 1019 30.09 848 25.04 1 33.8 66 -4.8 23.4
01:50 1019 30.09 848 25.04 0.9 33.6 66 -4.8 23.4
01:55 1019 30.09 849 25.07 0.8 33.5 66 -4.7 23.5
02:00 1019 30.09 848 25.04 0.8 33.4 66 -4.8 23.4
02:05 1019 30.09 848 25.04 0.8 33.4 67 -4.7 23.6
02:10 1019 30.09 848 25.04 0.7 33.3 67 -4.6 23.7
02:15 1019 30.09 849 25.07 0.7 33.3 67 -4.6 23.6
02:20 1019 30.09 849 25.07 0.7 33.2 68 -4.6 23.8
02:25 1019 30.09 849 25.07 0.6 33.1 69 -4.4 24
02:30 1020 30.12 849 25.07 0.6 33.1 69 -4.4 24
02:35 1020 30.12 849 25.07 0.6 33 69 -4.5 23.8
02:40 1020 30.12 849 25.07 0.6 33.1 67 -4.8 23.3
02:45 1020 30.12 849 25.07 0.6 33.2 67 -4.8 23.4
02:50 1020 30.12 849 25.07 0.7 33.3 66 -5 23.1
02:55 1020 30.12 849 25.07 0.9 33.6 65 -5 22.9
03:00 1020 30.12 849 25.07 1 33.8 64 -5 23
03:05 1020 30.12 849 25.07 1.1 33.9 65 -4.8 23.3
03:10 1020 30.12 849 25.07 1 33.9 65 -4.9 23.2
03:15 1020 30.12 849 25.07 1 33.8 65 -4.8 23.3
03:20 1020 30.12 849 25.07 0.9 33.7 65 -5 23
03:25 1020 30.12 850 25.1 0.9 33.6 66 -4.8 23.3
03:30 1020 30.12 850 25.1 0.9 33.6 65 -5.1 22.9
03:35 1020 30.12 850 25.1 1 33.7 63 -5.2 22.6
03:40 1021 30.15 850 25.1 1 33.8 64 -5.2 22.7
03:45 1021 30.15 850 25.1 1 33.9 62 -5.3 22.4
03:50 1021 30.15 850 25.1 1.1 34 63 -5.2 22.6
03:55 1021 30.15 850 25.1 1.2 34.1 62 -5.3 22.4
04:00 1021 30.15 850 25.1 1.2 34.2 60 -5.7 21.8
04:05 1021 30.15 850 25.1 1.3 34.3 60 -5.6 22
04:10 1021 30.15 850 25.1 1.3 34.3 60 -5.6 22
04:15 1021 30.15 850 25.1 1.2 34.1 63 -5.2 22.6
04:20 1021 30.15 850 25.1 1 33.8 63 -5.2 22.6
04:25 1021 30.15 850 25.1 0.9 33.6 63 -5.3 22.4
04:30 1021 30.15 850 25.1 0.8 33.4 62 -5.6 22
04:35 1021 30.15 851 25.13 0.7 33.3 64 -5.3 22.5
04:40 1021 30.15 851 25.13 0.6 33.1 64 -5.4 22.2
04:45 1021 30.15 851 25.13 0.6 33 64 -5.4 22.3
04:50 1021 30.15 851 25.13 0.5 32.9 65 -5.4 22.4
04:55 1022 30.18 851 25.13 0.4 32.7 66 -5.2 22.6
05:00 1022 30.18 851 25.13 0.3 32.5 67 -5.2 22.6
05:05 1022 30.18 851 25.13 0.2 32.4 67 -5.3 22.5
05:10 1022 30.18 851 25.13 0.2 32.4 65 -5.6 22
05:15 1022 30.18 851 25.13 0.3 32.5 65 -5.6 21.8
05:20 1022 30.18 851 25.13 0.3 32.6 65 -5.6 22
05:25 1022 30.18 851 25.13 0.4 32.6 63 -6 21.3
05:30 1022 30.18 851 25.13 0.4 32.7 63 -5.9 21.3
05:35 1022 30.18 851 25.13 0.4 32.7 62 -6.1 21
05:40 1022 30.18 851 25.13 0.4 32.7 62 -6.2 20.9
05:45 1022 30.18 851 25.13 0.3 32.6 62 -6.2 20.8
05:50 1022 30.18 851 25.13 0.2 32.4 62 -6.1 21
05:55 1022 30.18 851 25.13 0.1 32.3 62 -6.4 20.5
06:00 1022 30.18 851 25.13 0.1 32.2 62 -6.4 20.5
06:05 1022 30.18 851 25.13 0.1 32.2 61 -6.5 20.3
06:10 1022 30.18 852 25.16 0.1 32.1 62 -6.5 20.4
06:15 1022 30.18 852 25.16 0 32.1 60 -6.7 19.9
06:20 1022 30.18 852 25.16 0 32 60 -6.8 19.8
06:25 1023 30.21 852 25.16 -0 31.9 60 -7 19.4
06:30 1023 30.21 852 25.16 -0 32 60 -6.9 19.5
06:35 1023 30.21 852 25.16 -0.1 31.8 61 -6.8 19.8
06:40 1023 30.21 852 25.16 -0.2 31.7 61 -6.8 19.7
06:45 1023 30.21 852 25.16 -0.2 31.7 61 -6.8 19.8
06:50 1023 30.21 852 25.16 -0.3 31.5 62 -6.8 19.7
06:55 1023 30.21 852 25.16 -0.3 31.4 61 -6.9 19.6
07:00 1023 30.21 852 25.16 -0.4 31.3 62 -6.7 19.9
07:05 1023 30.21 852 25.16 -0.4 31.3 62 -6.8 19.8
07:10 1023 30.21 852 25.16 -0.4 31.3 62 -6.7 19.9
07:15 1023 30.21 852 25.16 -0.4 31.2 61 -7 19.4
07:20 1023 30.21 852 25.16 -0.4 31.3 61 -7.1 19.2
07:25 1023 30.21 852 25.16 -0.4 31.3 61 -7.1 19.3
07:30 1023 30.21 853 25.19 -0.3 31.4 59 -7.4 18.8
07:35 1023 30.21 853 25.19 -0.3 31.5 60 -7.1 19.3
07:40 1023 30.21 853 25.19 -0.4 31.4 60 -7.1 19.2
07:45 1024 30.24 853 25.19 -0.5 31.2 61 -7 19.3
07:50 1024 30.24 853 25.19 -0.5 31.2 61 -7.2 19.1
07:55 1024 30.24 853 25.19 -0.5 31.1 61 -7 19.4
08:00 1024 30.24 853 25.19 -0.5 31.1 61 -7.2 19.1
08:05 1024 30.24 853 25.19 -0.5 31.1 61 -7.1 19.3
08:10 1024 30.24 853 25.19 -0.6 31 62 -7 19.4
08:15 1024 30.24 853 25.19 -0.6 30.9 64 -6.6 20
08:20 1024 30.24 853 25.19 -0.8 30.6 64 -6.8 19.8
08:25 1024 30.24 853 25.19 -0.9 30.3 64 -6.8 19.7
08:30 1024 30.24 853 25.19 -1 30.2 64 -6.9 19.5
08:35 1024 30.24 853 25.19 -0.9 30.3 63 -7 19.3
08:40 1024 30.24 853 25.19 -0.9 30.3 63 -7.1 19.3
08:45 1024 30.24 853 25.19 -0.9 30.3 63 -7.2 19
08:50 1024 30.24 853 25.19 -0.9 30.4 63 -7.1 19.2
08:55 1024 30.24 853 25.19 -0.9 30.4 63 -7.1 19.2
09:00 1024 30.24 854 25.22 -0.9 30.4 62 -7.2 19.1
09:05 1024 30.24 854 25.22 -0.8 30.5 62 -7.2 19
09:10 1025 30.27 854 25.22 -0.8 30.5 63 -7 19.4
09:15 1025 30.27 854 25.22 -0.9 30.5 63 -7 19.3
09:20 1025 30.27 854 25.22 -0.9 30.5 62 -7.2 19
09:25 1025 30.27 854 25.22 -0.8 30.5 63 -7.1 19.3
09:30 1025 30.27 854 25.22 -0.8 30.6 63 -7 19.4
09:35 1025 30.27 854 25.22 -0.8 30.5 62 -7.1 19.2
09:40 1025 30.27 854 25.22 -0.8 30.5 63 -7.1 19.2
09:45 1025 30.27 854 25.22 -0.9 30.5 63 -7 19.3
09:50 1025 30.27 854 25.22 -0.9 30.5 62 -7.2 19
09:55 1025 30.27 854 25.22 -0.8 30.6 62 -7.2 19
10:00 1025 30.27 855 25.25 -0.8 30.6 62 -7.2 19.1
10:05 1025 30.27 855 25.25 -0.7 30.7 62 -7.1 19.3
10:10 1025 30.27 855 25.25 -0.7 30.7 62 -7.2 19
10:15 1025 30.27 855 25.25 -0.7 30.7 61 -7.3 18.8
10:20 1026 30.3 855 25.25 -0.7 30.7 62 -7.2 19
10:25 1026 30.3 855 25.25 -0.7 30.7 62 -7.1 19.3
10:30 1026 30.3 855 25.25 -0.8 30.5 64 -6.8 19.8
10:35 1026 30.3 855 25.25 -0.9 30.4 64 -6.9 19.6
10:40 1026 30.3 855 25.25 -0.9 30.4 63 -6.9 19.5
10:45 1026 30.3 855 25.25 -0.7 30.7 62 -7 19.3
10:50 1026 30.3 855 25.25 -0.5 31.1 62 -6.8 19.7
10:55 1026 30.3 855 25.25 -0.6 31 62 -7 19.3
11:00 1026 30.3 855 25.25 -0.4 31.3 61 -7.1 19.3
11:05 1026 30.3 855 25.25 -0.3 31.5 60 -7.1 19.3
11:10 1026 30.3 855 25.25 -0.1 31.7 58 -7.5 18.5
11:15 1026 30.3 855 25.25 -0 32 59 -7.1 19.1
11:20 1026 30.3 855 25.25 0.2 32.4 57 -7.2 19
11:25 1026 30.3 855 25.25 0.3 32.5 58 -7.1 19.3
11:30 1026 30.3 855 25.25 0.4 32.6 58 -7 19.4
11:35 1026 30.3 855 25.25 0.4 32.7 57 -7.1 19.3
11:40 1026 30.3 855 25.25 0.5 32.9 56 -7.3 18.8
11:45 1026 30.3 855 25.25 0.6 33.1 55 -7.4 18.7
11:50 1026 30.3 855 25.25 0.8 33.5 55 -7.2 19.1
11:55 1026 30.3 855 25.25 0.8 33.5 55 -7.3 18.9
12:00 1026 30.3 855 25.25 0.8 33.4 54 -7.4 18.7
12:05 1026 30.3 855 25.25 0.8 33.5 54 -7.4 18.6
12:10 1026 30.3 855 25.25 0.8 33.5 54 -7.4 18.6
12:15 1026 30.3 855 25.25 1 33.9 54 -7.2 19
12:20 1026 30.3 855 25.25 1.2 34.2 53 -7.4 18.7
12:25 1026 30.3 855 25.25 1.4 34.5 52 -7.3 18.8
12:30 1026 30.3 855 25.25 2 35.5 50 -7.4 18.7
12:35 1026 30.3 855 25.25 1.6 34.8 51 -7.4 18.6
12:40 1026 30.3 855 25.25 1.4 34.4 55 -6.7 19.9
12:45 1026 30.3 855 25.25 1.2 34.2 57 -6.4 20.6
12:50 1026 30.3 855 25.25 0.9 33.6 58 -6.4 20.4
12:55 1026 30.3 855 25.25 1 33.7 60 -6 21.1
13:00 1026 30.3 855 25.25 0.8 33.4 60 -6.1 21
13:05 1026 30.3 855 25.25 0.6 33 59 -6.6 20.1
13:10 1026 30.3 855 25.25 0.5 32.9 60 -6.3 20.7
13:15 1025 30.27 855 25.25 0.5 32.9 61 -6.2 20.8
13:20 1025 30.27 855 25.25 0.3 32.6 60 -6.6 20.1
13:25 1025 30.27 855 25.25 0.6 33 57 -6.9 19.6
13:30 1025 30.27 855 25.25 0.6 33.1 58 -6.7 19.9
13:35 1025 30.27 855 25.25 0.7 33.3 58 -6.6 20.1
13:40 1025 30.27 854 25.22 0.9 33.7 57 -6.6 20.2
13:45 1025 30.27 854 25.22 1.5 34.6 55 -6.5 20.2
13:50 1025 30.27 854 25.22 1.6 34.9 55 -6.5 20.3
13:55 1025 30.27 854 25.22 1.8 35.2 51 -7.3 18.9
14:00 1025 30.27 854 25.22 1.9 35.5 49 -7.7 18.1
14:05 1025 30.27 854 25.22 1.9 35.5 50 -7.3 18.8
14:10 1025 30.27 854 25.22 1.8 35.2 52 -6.9 19.5
14:15 1025 30.27 854 25.22 2 35.6 50 -7.4 18.7
14:20 1025 30.27 854 25.22 2.1 35.8 50 -7.3 18.9
14:25 1025 30.27 854 25.22 2.4 36.3 50 -6.9 19.6
14:30 1025 30.27 854 25.22 2 35.7 51 -7 19.4
14:35 1025 30.27 854 25.22 2.2 36 53 -6.4 20.5
14:40 1025 30.27 854 25.22 2.7 36.8 51 -6.5 20.4
14:45 1025 30.27 854 25.22 2.7 36.9 50 -6.5 20.2
14:50 1025 30.27 854 25.22 3.1 37.5 46 -7.4 18.7
14:55 1025 30.27 854 25.22 3 37.5 48 -6.8 19.7
15:00 1025 30.27 854 25.22 3.5 38.2 46 -7 19.5
15:05 1025 30.27 854 25.22 2.9 37.2 48 -7.2 19.1
15:10 1025 30.27 854 25.22 3.2 37.8 44 -7.8 18
15:15 1025 30.27 854 25.22 3.4 38 46 -7.3 18.9
15:20 1025 30.27 854 25.22 3.2 37.8 46 -7.3 18.8
15:25 1025 30.27 854 25.22 2.9 37.1 46 -7.7 18.1
15:30 1025 30.27 854 25.22 2.9 37.3 46 -7.5 18.5
15:35 1025 30.27 854 25.22 2.8 37 46 -7.7 18.1
15:40 1025 30.27 854 25.22 3.2 37.7 44 -8.1 17.5
15:45 1025 30.27 854 25.22 3.1 37.6 43 -8.1 17.4
15:50 1025 30.27 854 25.22 3 37.4 44 -7.9 17.7
15:55 1025 30.27 854 25.22 3.2 37.7 43 -8.2 17.2
16:00 1025 30.27 854 25.22 3.5 38.2 43 -7.9 17.7
16:05 1025 30.27 854 25.22 3.6 38.6 41 -8.3 17
16:10 1025 30.27 854 25.22 3.5 38.3 41 -8.4 16.9
16:15 1025 30.27 854 25.22 3.5 38.3 40 -8.7 16.3
16:20 1025 30.27 854 25.22 3.6 38.6 40 -8.6 16.5
16:25 1024 30.24 854 25.22 3.7 38.6 39 -9 15.8
16:30 1024 30.24 854 25.22 3.6 38.5 40 -8.7 16.3
16:35 1024 30.24 854 25.22 3.6 38.4 40 -8.9 16
16:40 1025 30.27 854 25.22 3.3 37.9 40 -9.1 15.7
16:45 1025 30.27 854 25.22 3.2 37.7 41 -9 15.8
16:50 1025 30.27 854 25.22 3.1 37.6 41 -8.9 16
16:55 1025 30.27 854 25.22 3.3 38 42 -8.4 16.8
17:00 1025 30.27 854 25.22 3.1 37.5 45 -7.8 18
17:05 1025 30.27 854 25.22 2.5 36.4 46 -7.9 17.8
17:10 1025 30.27 854 25.22 2.3 36.1 46 -8.2 17.2
17:15 1025 30.27 854 25.22 2.3 36.2 45 -8.5 16.7
17:20 1025 30.27 854 25.22 2.3 36.2 45 -8.5 16.7
17:25 1025 30.27 854 25.22 2.1 35.8 46 -8.3 17.1
17:30 1025 30.27 854 25.22 1.6 34.9 47 -8.5 16.7
17:35 1025 30.27 854 25.22 0.8 33.5 47 -9.2 15.5
17:40 1025 30.27 854 25.22 0.7 33.3 49 -9 15.9
17:45 1025 30.27 854 25.22 0.8 33.5 50 -8.5 16.7
17:50 1025 30.27 854 25.22 0.8 33.5 51 -8.2 17.3
17:55 1025 30.27 854 25.22 0.6 33.1 52 -8.2 17.3
18:00 1025 30.27 854 25.22 0.2 32.3 54 -8.1 17.5
18:05 1025 30.27 854 25.22 -0.3 31.4 57 -7.9 17.7
18:10 1025 30.27 854 25.22 -0.8 30.6 57 -8.3 17.1
18:15 1025 30.27 854 25.22 -0.9 30.3 58 -8.2 17.3
18:20 1025 30.27 854 25.22 -0.9 30.3 59 -8 17.6
18:25 1025 30.27 854 25.22 -1.1 30 59 -8.1 17.4
18:30 1025 30.27 854 25.22 -1.2 29.8 59 -8.2 17.2
18:35 1025 30.27 854 25.22 -1.5 29.3 59 -8.4 16.8
18:40 1025 30.27 854 25.22 -1.9 28.6 61 -8.5 16.7
18:45 1025 30.27 854 25.22 -2.1 28.2 60 -8.8 16.2
18:50 1025 30.27 854 25.22 -2 28.4 58 -9.1 15.5
18:55 1025 30.27 854 25.22 -1.8 28.7 60 -8.6 16.4
19:00 1025 30.27 854 25.22 -1.8 28.8 59 -8.8 16.2
19:05 1025 30.27 854 25.22 -1.7 29 58 -9 15.9
19:10 1025 30.27 854 25.22 -1.6 29.1 56 -9.3 15.3
19:15 1025 30.27 854 25.22 -1.7 28.9 56 -9.3 15.3
19:20 1025 30.27 854 25.22 -1.7 29 56 -9.4 15.1
19:25 1025 30.27 854 25.22 -1.6 29 59 -8.6 16.6
19:30 1025 30.27 854 25.22 -2.2 28 59 -9.3 15.3
19:35 1025 30.27 854 25.22 -2.6 27.4 61 -9.2 15.5
19:40 1025 30.27 854 25.22 -2.3 27.9 56 -9.8 14.3
19:45 1025 30.27 854 25.22 -2 28.3 56 -9.6 14.7
19:50 1025 30.27 854 25.22 -2.2 28.1 57 -9.5 14.9
19:55 1025 30.27 854 25.22 -2 28.4 55 -9.9 14.1
20:00 1025 30.27 854 25.22 -1.6 29 54 -9.9 14.2
20:05 1025 30.27 854 25.22 -1.8 28.8 56 -9.4 15
20:10 1025 30.27 854 25.22 -2.1 28.3 57 -9.5 14.8
20:15 1025 30.27 854 25.22 -2 28.3 56 -9.6 14.8
20:20 1025 30.27 854 25.22 -2.3 27.9 56 -10 14.1
20:25 1025 30.27 854 25.22 -2.4 27.7 59 -9.4 15.1
20:30 1025 30.27 854 25.22 -2.7 27.1 60 -9.4 15.1
20:35 1025 30.27 854 25.22 -2.8 26.9 59 -9.9 14.2
20:40 1025 30.27 854 25.22 -2.4 27.6 52 -10.9 12.4
20:45 1025 30.27 854 25.22 -2 28.3 52 -10.7 12.7
20:50 1025 30.27 854 25.22 -1.8 28.7 51 -10.8 12.6
20:55 1025 30.27 854 25.22 -2 28.3 53 -10.5 13.1
21:00 1025 30.27 854 25.22 -2.7 27.1 57 -10.1 13.9
21:05 1025 30.27 854 25.22 -3 26.6 56 -10.6 12.8
21:10 1025 30.27 854 25.22 -2.8 27 55 -10.6 12.9
21:15 1025 30.27 854 25.22 -2.4 27.6 53 -10.7 12.8
21:20 1025 30.27 854 25.22 -2.6 27.3 55 -10.6 13
21:25 1025 30.27 854 25.22 -2.7 27.1 60 -9.5 14.8
21:30 1025 30.27 854 25.22 -3.8 25.2 60 -10.5 13.2
21:35 1025 30.27 854 25.22 -3.8 25.1 61 -10.4 13.3
21:40 1025 30.27 854 25.22 -3.7 25.4 59 -10.5 13
21:45 1025 30.27 854 25.22 -3.4 25.8 58 -10.5 13.1
21:50 1025 30.27 854 25.22 -3.3 26.1 58 -10.4 13.4
21:55 1025 30.27 854 25.22 -3.4 26 59 -10.3 13.5
22:00 1025 30.27 854 25.22 -3.4 25.8 59 -10.4 13.2
22:05 1025 30.27 854 25.22 -3.6 25.6 59 -10.3 13.4
22:10 1025 30.27 854 25.22 -3.5 25.6 59 -10.5 13
22:15 1024 30.24 854 25.22 -3 26.5 57 -10.4 13.4
22:20 1024 30.24 854 25.22 -2.9 26.7 55 -10.8 12.5
22:25 1024 30.24 854 25.22 -3.1 26.5 56 -10.6 13
22:30 1024 30.24 854 25.22 -3.6 25.6 61 -10.1 13.7
22:35 1024 30.24 854 25.22 -3.3 26.1 57 -10.6 13
22:40 1025 30.27 854 25.22 -3.2 26.3 57 -10.4 13.3
22:45 1024 30.24 854 25.22 -3.7 25.3 58 -10.8 12.6
22:50 1024 30.24 854 25.22 -3.8 25.2 59 -10.7 12.7
22:55 1024 30.24 853 25.19 -3.9 25.1 60 -10.5 13.2
23:00 1024 30.24 854 25.22 -4.4 24 63 -10.4 13.2
23:05 1024 30.24 854 25.22 -4.4 24 63 -10.5 13.2
23:10 1024 30.24 854 25.22 -4 24.8 59 -10.8 12.5
23:15 1024 30.24 854 25.22 -3.4 25.8 57 -10.8 12.6
23:20 1024 30.24 854 25.22 -3.4 25.9 57 -10.8 12.5
23:25 1024 30.24 854 25.22 -3.2 26.2 56 -10.8 12.5
23:30 1024 30.24 853 25.19 -3.5 25.7 55 -11.4 11.5
23:35 1024 30.24 853 25.19 -2.7 27.1 52 -11.2 11.9
23:40 1024 30.24 853 25.19 -3.3 26.1 54 -11.3 11.7
23:45 1024 30.24 853 25.19 -4.2 24.4 59 -11.1 12
23:50 1024 30.24 853 25.19 -5.1 22.8 61 -11.6 11.1
23:55 1024 30.24 854 25.22 -5.3 22.4 61 -11.8 10.7
24:00 1024 30.24 854 25.22 -5.3 22.5 62 -11.4 11.5